Flight Track Log - Related Links

Times and Time Zones

All times are in EDT time to prevent confusion due to time zone crossing. See the AWI3688 flight status page for this flight to view local times or setup timezone preferences in your user account.

Time Position Orientation Groundspeed Altitude Reporting Facility
EDT Latitude Longitude Course Direction KTS MPH feet Rate Location/Type
Mon 12:35:56 PM 39.8833 -75.2167 37° Northeast 148 170 900  Level Philadelphia TRACON
Mon 12:36:56 PM 39.8667 -75.1500 108° East 202 232 2,900 2,366 Climbing Philadelphia TRACON
Mon 12:38:00 PM 39.7971 -74.7686 105° East  Level FlightAware Approximate
Mon 12:38:51 PM 39.8383 -74.9828 102° East 257 296 7,800  Level New York Center
Mon 12:39:00 PM 39.8387 -74.6447 37° Northeast  Level FlightAware Approximate
Mon 12:39:52 PM 39.8225 -74.8956 103° East 272 313 10,100  Level New York Center
Mon 12:40:00 PM 39.9407 -74.5593 37° Northeast  Level FlightAware Approximate
Mon 12:40:52 PM 39.8394 -74.7719 80° East 306 352 11,600  Level New York Center
Mon 12:41:00 PM 40.0326 -74.4508 37° Northeast  Level FlightAware Approximate
Mon 12:41:53 PM 39.9031 -74.6783 48° Northeast 301 346 13,800  Level New York Center
Mon 12:42:53 PM 39.9728 -74.5819 47° Northeast 327 376 15,300 1,736 Climbing New York Center
Mon 12:43:54 PM 40.0467 -74.4911 43° Northeast 349 402 17,300 1,613 Climbing New York Center
Mon 12:44:52 PM 40.1236 -74.4275 32° Northeast 365 420 18,500 1,311 Climbing New York Center
Mon 12:45:53 PM 40.2200 -74.3428 34° Northeast 371 427 19,900 1,091 Climbing New York Center
Mon 12:46:53 PM 40.3161 -74.2661 31° Northeast 385 443 20,700 942 Climbing New York Center
Mon 12:47:54 PM 40.4081 -74.1836 34° Northeast 396 456 21,800 1,361 Climbing New York Center
Mon 12:48:52 PM 40.5042 -74.1036 32° Northeast 402 463 23,400 1,109 Climbing New York Center
Mon 12:49:53 PM 40.6003 -74.0236 32° Northeast 402 463 24,000 190 Climbing New York Center
Mon 12:52:01 PM 40.8142 -73.8386 33° Northeast 434 499 24,000  Level Boston Center
Mon 12:53:01 PM 40.9114 -73.7200 43° Northeast 455 524 24,000 -500 Level Boston Center
Mon 12:54:01 PM 41.0167 -73.6258 34° Northeast 460 529 23,000 -950 Descending Boston Center
Mon 12:55:01 PM 41.1375 -73.6142 North 430 495 22,100 -1,150 Descending Boston Center
Mon 12:56:01 PM 41.2583 -73.6247 356° North 425 489 20,700 -1,550 Descending Boston Center
Mon 12:57:01 PM 41.3853 -73.6436 354° North 419 482 19,000 -1,500 Descending Boston Center
Mon 12:58:01 PM 41.5039 -73.6569 355° North 412 474 17,700 -1,350 Descending Boston Center
Mon 12:59:01 PM 41.6183 -73.6703 355° North 417 480 16,300 -1,500 Descending Boston Center
Mon 01:00:01 PM 41.7267 -73.6806 356° North 404 465 14,700 -1,500 Descending Boston Center
Mon 01:01:01 PM 41.8328 -73.6939 355° North 393 452 13,300 -1,500 Descending Boston Center
Mon 01:02:01 PM 41.9369 -73.7044 356° North 384 442 11,700 -1,568 Descending Boston Center
Mon 01:02:29 PM 41.9869 -73.7136 352° North 377 434 11,000 -700 Descending Boston Center
Mon 01:03:01 PM 42.0408 -73.7206 355° North 384 442 11,000  Level Boston Center
Mon 01:03:29 PM 42.0931 -73.7269 355° North 375 432 11,000  Level Boston Center
Mon 01:04:01 PM 42.1347 -73.7306 356° North 378 435 11,000  Level Boston Center
Mon 01:04:30 PM 42.1950 -73.7375 355° North 372 428 11,000  Level Boston Center
Mon 01:05:01 PM 42.2514 -73.7331 North 378 435 11,000  Level Boston Center
Mon 01:05:31 PM 42.3014 -73.7258 North 388 447 11,000  Level Boston Center
Mon 01:06:01 PM 42.3369 -73.7208 North 378 435 11,000 -700 Level Boston Center
Mon 01:06:31 PM 42.4078 -73.7111 North 383 441 10,300 -1,000 Descending Boston Center
Mon 01:07:01 PM 42.4539 -73.7036 North 369 425 10,000 -787 Descending Boston Center
Mon 01:07:32 PM 42.4956 -73.6958 North 297 342 9,500 -1,400 Descending Boston Center
Mon 01:08:01 PM 42.5269 -73.6908 North 315 362 8,600 -1,869 Descending Boston Center
Mon 01:08:33 PM 42.5769 -73.6892 North 283 326 7,600 -2,000 Descending Boston Center
Mon 01:09:01 PM 42.6167 -73.6786 11° North 289 333 6,600 -2,100 Descending Boston Center
Mon 01:09:33 PM 42.6606 -73.6711 North 285 328 5,500 -1,800 Descending Boston Center
Mon 01:10:01 PM 42.6875 -73.6689 North 289 333 4,800 -1,869 Descending Boston Center
Mon 01:10:34 PM 42.7394 -73.6867 346° North 298 343 3,600 -1,800 Descending Boston Center
Mon 01:11:01 PM 42.7747 -73.6958 349° North 284 327 3,000 -1,333 Descending Boston Center

Login

Don't have an account? Register now (free) for customized features, flight alerts, and more!